sensor_id;sensor_type;location;lat;lon;timestamp;pressure;altitude;pressure_sealevel;temperature;humidity
10366;BME280;5229;41.820;23.490;2022-08-03T00:00:18;90186.81;;;19.75;50.45
10366;BME280;5229;41.820;23.490;2022-08-03T00:02:45;90187.91;;;19.70;50.54
10366;BME280;5229;41.820;23.490;2022-08-03T00:05:12;90183.69;;;19.66;50.75
10366;BME280;5229;41.820;23.490;2022-08-03T00:07:39;90183.63;;;19.62;50.93
10366;BME280;5229;41.820;23.490;2022-08-03T00:10:06;90186.59;;;19.61;50.99
10366;BME280;5229;41.820;23.490;2022-08-03T00:12:33;90177.91;;;19.57;51.29
10366;BME280;5229;41.820;23.490;2022-08-03T00:15:01;90174.41;;;19.49;51.46
10366;BME280;5229;41.820;23.490;2022-08-03T00:17:29;90171.31;;;19.44;51.84
10366;BME280;5229;41.820;23.490;2022-08-03T00:19:56;90176.09;;;19.38;51.76
10366;BME280;5229;41.820;23.490;2022-08-03T00:22:22;90179.44;;;19.35;51.97
10366;BME280;5229;41.820;23.490;2022-08-03T00:24:49;90175.25;;;19.31;52.33
10366;BME280;5229;41.820;23.490;2022-08-03T00:27:16;90171.78;;;19.27;52.20
10366;BME280;5229;41.820;23.490;2022-08-03T00:29:43;90175.50;;;19.26;52.50
10366;BME280;5229;41.820;23.490;2022-08-03T00:32:09;90177.72;;;19.24;52.46
10366;BME280;5229;41.820;23.490;2022-08-03T00:34:38;90167.91;;;19.21;52.38
10366;BME280;5229;41.820;23.490;2022-08-03T00:37:04;90171.66;;;19.20;52.56
10366;BME280;5229;41.820;23.490;2022-08-03T00:39:31;90171.56;;;19.16;52.52
10366;BME280;5229;41.820;23.490;2022-08-03T00:42:01;90169.63;;;19.13;52.45
10366;BME280;5229;41.820;23.490;2022-08-03T00:44:28;90172.91;;;19.07;52.91
10366;BME280;5229;41.820;23.490;2022-08-03T00:46:54;90169.88;;;19.05;53.21
10366;BME280;5229;41.820;23.490;2022-08-03T00:49:22;90168.34;;;19.04;53.21
10366;BME280;5229;41.820;23.490;2022-08-03T00:51:50;90181.09;;;19.02;53.35
10366;BME280;5229;41.820;23.490;2022-08-03T00:54:17;90181.84;;;19.02;53.37
10366;BME280;5229;41.820;23.490;2022-08-03T00:56:45;90173.09;;;18.95;53.53
10366;BME280;5229;41.820;23.490;2022-08-03T00:59:13;90178.63;;;18.90;53.53
10366;BME280;5229;41.820;23.490;2022-08-03T01:01:40;90171.75;;;18.85;53.68
10366;BME280;5229;41.820;23.490;2022-08-03T01:04:07;90177.41;;;18.84;53.83
10366;BME280;5229;41.820;23.490;2022-08-03T01:06:41;90172.84;;;18.81;53.85
10366;BME280;5229;41.820;23.490;2022-08-03T01:09:17;90176.97;;;18.82;53.95
10366;BME280;5229;41.820;23.490;2022-08-03T01:11:48;90175.47;;;18.81;53.92
10366;BME280;5229;41.820;23.490;2022-08-03T01:14:20;90178.09;;;18.81;54.05
10366;BME280;5229;41.820;23.490;2022-08-03T01:16:55;90173.19;;;18.79;54.25
10366;BME280;5229;41.820;23.490;2022-08-03T01:19:37;90170.81;;;18.74;54.19
10366;BME280;5229;41.820;23.490;2022-08-03T01:22:19;90174.22;;;18.75;53.94
10366;BME280;5229;41.820;23.490;2022-08-03T01:24:56;90180.59;;;18.74;54.27
10366;BME280;5229;41.820;23.490;2022-08-03T01:27:32;90179.41;;;18.71;54.06
10366;BME280;5229;41.820;23.490;2022-08-03T01:30:08;90188.47;;;18.74;54.09
10366;BME280;5229;41.820;23.490;2022-08-03T01:32:41;90183.22;;;18.74;54.16
10366;BME280;5229;41.820;23.490;2022-08-03T01:35:13;90189.56;;;18.73;54.33
10366;BME280;5229;41.820;23.490;2022-08-03T01:37:43;90180.84;;;18.69;54.50
10366;BME280;5229;41.820;23.490;2022-08-03T01:40:12;90172.16;;;18.65;54.42
10366;BME280;5229;41.820;23.490;2022-08-03T01:42:40;90177.41;;;18.65;54.42
10366;BME280;5229;41.820;23.490;2022-08-03T01:45:11;90170.63;;;18.64;54.48
10366;BME280;5229;41.820;23.490;2022-08-03T01:47:40;90171.31;;;18.61;54.62
10366;BME280;5229;41.820;23.490;2022-08-03T01:50:09;90164.91;;;18.58;54.56
10366;BME280;5229;41.820;23.490;2022-08-03T01:52:39;90163.72;;;18.56;54.88
10366;BME280;5229;41.820;23.490;2022-08-03T01:55:09;90163.72;;;18.56;54.61
10366;BME280;5229;41.820;23.490;2022-08-03T01:57:38;90154.72;;;18.57;55.10
10366;BME280;5229;41.820;23.490;2022-08-03T02:00:07;90149.81;;;18.55;54.98
10366;BME280;5229;41.820;23.490;2022-08-03T02:02:38;90147.19;;;18.55;55.07
10366;BME280;5229;41.820;23.490;2022-08-03T02:05:08;90156.59;;;18.56;54.94
10366;BME280;5229;41.820;23.490;2022-08-03T02:07:35;90156.25;;;18.58;55.32
10366;BME280;5229;41.820;23.490;2022-08-03T02:10:05;90160.03;;;18.60;55.16
10366;BME280;5229;41.820;23.490;2022-08-03T02:12:33;90150.38;;;18.64;54.97
10366;BME280;5229;41.820;23.490;2022-08-03T02:15:00;90153.75;;;18.65;55.06
10366;BME280;5229;41.820;23.490;2022-08-03T02:17:28;90151.13;;;18.65;54.89
10366;BME280;5229;41.820;23.490;2022-08-03T02:19:59;90158.63;;;18.63;54.66
10366;BME280;5229;41.820;23.490;2022-08-03T02:22:26;90148.09;;;18.63;54.98
10366;BME280;5229;41.820;23.490;2022-08-03T02:24:55;90154.44;;;18.62;54.86
10366;BME280;5229;41.820;23.490;2022-08-03T02:27:23;90156.34;;;18.61;55.13
10366;BME280;5229;41.820;23.490;2022-08-03T02:29:55;90156.69;;;18.60;54.81
10366;BME280;5229;41.820;23.490;2022-08-03T02:32:29;90155.50;;;18.57;55.20
10366;BME280;5229;41.820;23.490;2022-08-03T02:34:59;90158.88;;;18.58;55.26
10366;BME280;5229;41.820;23.490;2022-08-03T02:37:30;90161.44;;;18.54;55.23
10366;BME280;5229;41.820;23.490;2022-08-03T02:40:00;90159.56;;;18.55;55.04
10366;BME280;5229;41.820;23.490;2022-08-03T02:42:29;90164.75;;;18.51;55.35
10366;BME280;5229;41.820;23.490;2022-08-03T02:44:59;90159.03;;;18.46;55.53
10366;BME280;5229;41.820;23.490;2022-08-03T02:47:27;90158.91;;;18.39;55.86
10366;BME280;5229;41.820;23.490;2022-08-03T02:49:57;90149.06;;;18.36;55.98
10366;BME280;5229;41.820;23.490;2022-08-03T02:52:27;90147.44;;;18.31;55.96
10366;BME280;5229;41.820;23.490;2022-08-03T02:54:58;90144.69;;;18.24;56.30
10366;BME280;5229;41.820;23.490;2022-08-03T02:57:27;90146.91;;;18.22;55.96
10366;BME280;5229;41.820;23.490;2022-08-03T02:59:56;90143.50;;;18.22;56.16
10366;BME280;5229;41.820;23.490;2022-08-03T03:02:24;90143.94;;;18.24;56.01
10366;BME280;5229;41.820;23.490;2022-08-03T03:04:52;90137.63;;;18.28;56.26
10366;BME280;5229;41.820;23.490;2022-08-03T03:07:21;90138.41;;;18.29;56.08
10366;BME280;5229;41.820;23.490;2022-08-03T03:09:48;90146.28;;;18.29;56.29
10366;BME280;5229;41.820;23.490;2022-08-03T03:12:16;90150.03;;;18.28;56.27
10366;BME280;5229;41.820;23.490;2022-08-03T03:14:43;90151.81;;;18.24;56.29
10366;BME280;5229;41.820;23.490;2022-08-03T03:17:11;90150.72;;;18.25;56.28
10366;BME280;5229;41.820;23.490;2022-08-03T03:19:40;90158.97;;;18.27;56.11
10366;BME280;5229;41.820;23.490;2022-08-03T03:22:09;90160.88;;;18.26;56.32
10366;BME280;5229;41.820;23.490;2022-08-03T03:24:40;90164.56;;;18.25;56.17
10366;BME280;5229;41.820;23.490;2022-08-03T03:27:08;90167.97;;;18.26;56.35
10366;BME280;5229;41.820;23.490;2022-08-03T03:29:35;90168.06;;;18.29;56.59
10366;BME280;5229;41.820;23.490;2022-08-03T03:32:03;90168.81;;;18.30;56.35
10366;BME280;5229;41.820;23.490;2022-08-03T03:34:31;90165.50;;;18.33;56.29
10366;BME280;5229;41.820;23.490;2022-08-03T03:36:58;90168.88;;;18.33;57.00
10366;BME280;5229;41.820;23.490;2022-08-03T03:39:27;90166.78;;;18.39;56.43
10366;BME280;5229;41.820;23.490;2022-08-03T03:41:55;90166.56;;;18.47;56.50
10366;BME280;5229;41.820;23.490;2022-08-03T03:44:25;90163.38;;;18.57;56.08
10366;BME280;5229;41.820;23.490;2022-08-03T03:46:53;90164.00;;;18.70;56.07
10366;BME280;5229;41.820;23.490;2022-08-03T03:49:20;90176.28;;;18.85;55.99
10366;BME280;5229;41.820;23.490;2022-08-03T03:51:47;90185.25;;;19.03;55.91
10366;BME280;5229;41.820;23.490;2022-08-03T03:54:14;90181.81;;;19.21;55.31
10366;BME280;5229;41.820;23.490;2022-08-03T03:56:41;90179.50;;;19.39;55.08
10366;BME280;5229;41.820;23.490;2022-08-03T03:59:09;90185.69;;;19.50;55.09
10366;BME280;5229;41.820;23.490;2022-08-03T04:01:37;90186.56;;;19.57;54.94
10366;BME280;5229;41.820;23.490;2022-08-03T04:04:04;90194.91;;;19.63;54.92
10366;BME280;5229;41.820;23.490;2022-08-03T04:06:45;90201.44;;;19.72;54.80
10366;BME280;5229;41.820;23.490;2022-08-03T04:09:30;90200.06;;;19.78;55.00
10366;BME280;5229;41.820;23.490;2022-08-03T04:12:17;90195.25;;;19.84;54.83
10366;BME280;5229;41.820;23.490;2022-08-03T04:14:47;90196.06;;;19.88;55.03
10366;BME280;5229;41.820;23.490;2022-08-03T04:17:15;90192.38;;;19.92;55.08
10366;BME280;5229;41.820;23.490;2022-08-03T04:19:46;90204.47;;;19.97;55.06
10366;BME280;5229;41.820;23.490;2022-08-03T04:22:17;90204.94;;;20.02;54.78
10366;BME280;5229;41.820;23.490;2022-08-03T04:24:48;90205.38;;;20.08;54.29
10366;BME280;5229;41.820;23.490;2022-08-03T04:27:20;90204.38;;;20.16;54.44
10366;BME280;5229;41.820;23.490;2022-08-03T04:29:50;90207.50;;;20.25;54.12
10366;BME280;5229;41.820;23.490;2022-08-03T04:32:19;90212.94;;;20.36;53.81
10366;BME280;5229;41.820;23.490;2022-08-03T04:34:48;90215.06;;;20.56;53.79
10366;BME280;5229;41.820;23.490;2022-08-03T04:37:22;90219.13;;;20.80;53.12
10366;BME280;5229;41.820;23.490;2022-08-03T04:39:52;90215.31;;;21.03;52.74
10366;BME280;5229;41.820;23.490;2022-08-03T04:42:21;90215.97;;;21.30;52.14
10366;BME280;5229;41.820;23.490;2022-08-03T04:44:51;90213.94;;;21.56;51.55
10366;BME280;5229;41.820;23.490;2022-08-03T04:47:20;90222.13;;;21.84;50.89
10366;BME280;5229;41.820;23.490;2022-08-03T04:49:47;90221.59;;;22.12;50.60
10366;BME280;5229;41.820;23.490;2022-08-03T04:52:14;90223.97;;;22.31;49.95
10366;BME280;5229;41.820;23.490;2022-08-03T04:54:43;90222.16;;;22.42;49.88
10366;BME280;5229;41.820;23.490;2022-08-03T04:57:10;90224.81;;;22.45;49.37
10366;BME280;5229;41.820;23.490;2022-08-03T04:59:37;90230.16;;;22.49;49.21
10366;BME280;5229;41.820;23.490;2022-08-03T05:02:06;90226.00;;;22.51;49.24
10366;BME280;5229;41.820;23.490;2022-08-03T05:04:32;90229.03;;;22.53;49.58
10366;BME280;5229;41.820;23.490;2022-08-03T05:06:59;90221.56;;;22.62;49.32
10366;BME280;5229;41.820;23.490;2022-08-03T05:09:26;90224.97;;;22.70;48.93
10366;BME280;5229;41.820;23.490;2022-08-03T05:11:53;90223.88;;;22.74;48.90
10366;BME280;5229;41.820;23.490;2022-08-03T05:14:20;90225.41;;;22.82;48.61
10366;BME280;5229;41.820;23.490;2022-08-03T05:16:47;90225.53;;;23.07;47.98
10366;BME280;5229;41.820;23.490;2022-08-03T05:19:15;90215.44;;;23.34;46.59
10366;BME280;5229;41.820;23.490;2022-08-03T05:21:42;90221.16;;;23.64;45.59
10366;BME280;5229;41.820;23.490;2022-08-03T05:24:08;90219.72;;;23.98;44.75
10366;BME280;5229;41.820;23.490;2022-08-03T05:26:35;90224.25;;;24.22;44.52
10366;BME280;5229;41.820;23.490;2022-08-03T05:29:03;90221.97;;;24.41;44.28
10366;BME280;5229;41.820;23.490;2022-08-03T05:31:30;90228.00;;;24.63;43.32
10366;BME280;5229;41.820;23.490;2022-08-03T05:33:57;90232.50;;;24.80;43.08
10366;BME280;5229;41.820;23.490;2022-08-03T05:36:25;90236.63;;;24.95;42.62
10366;BME280;5229;41.820;23.490;2022-08-03T05:38:52;90232.44;;;25.08;42.44
10366;BME280;5229;41.820;23.490;2022-08-03T05:41:19;90234.63;;;25.20;41.97
10366;BME280;5229;41.820;23.490;2022-08-03T05:43:46;90237.66;;;25.25;42.18
10366;BME280;5229;41.820;23.490;2022-08-03T05:46:12;90238.81;;;25.35;42.40
10366;BME280;5229;41.820;23.490;2022-08-03T05:48:40;90242.94;;;25.43;42.76
10366;BME280;5229;41.820;23.490;2022-08-03T05:51:07;90243.63;;;25.54;42.49
10366;BME280;5229;41.820;23.490;2022-08-03T05:53:36;90248.50;;;25.66;42.41
10366;BME280;5229;41.820;23.490;2022-08-03T05:56:04;90251.88;;;25.77;42.60
10366;BME280;5229;41.820;23.490;2022-08-03T05:58:31;90251.78;;;25.91;43.01
10366;BME280;5229;41.820;23.490;2022-08-03T06:00:58;90253.94;;;26.10;42.65
10366;BME280;5229;41.820;23.490;2022-08-03T06:03:24;90259.94;;;26.21;42.91
10366;BME280;5229;41.820;23.490;2022-08-03T06:05:52;90256.44;;;26.31;42.73
10366;BME280;5229;41.820;23.490;2022-08-03T06:08:20;90251.81;;;26.39;42.23
10366;BME280;5229;41.820;23.490;2022-08-03T06:10:49;90249.03;;;26.53;42.19
10366;BME280;5229;41.820;23.490;2022-08-03T06:13:16;90252.75;;;26.66;41.99
10366;BME280;5229;41.820;23.490;2022-08-03T06:15:42;90252.63;;;26.80;41.68
10366;BME280;5229;41.820;23.490;2022-08-03T06:18:09;90253.66;;;26.89;41.44
10366;BME280;5229;41.820;23.490;2022-08-03T06:20:36;90252.09;;;26.95;40.93
10366;BME280;5229;41.820;23.490;2022-08-03T06:23:03;90256.09;;;27.10;40.79
10366;BME280;5229;41.820;23.490;2022-08-03T06:25:29;90250.25;;;27.29;39.93
10366;BME280;5229;41.820;23.490;2022-08-03T06:27:58;90251.88;;;27.50;39.04
10366;BME280;5229;41.820;23.490;2022-08-03T06:30:25;90248.56;;;27.72;38.85
10366;BME280;5229;41.820;23.490;2022-08-03T06:32:52;90251.78;;;27.87;38.49
10366;BME280;5229;41.820;23.490;2022-08-03T06:35:19;90255.06;;;27.98;38.30
10366;BME280;5229;41.820;23.490;2022-08-03T06:37:48;90254.16;;;28.08;37.74
10366;BME280;5229;41.820;23.490;2022-08-03T06:40:16;90249.44;;;28.19;37.13
10366;BME280;5229;41.820;23.490;2022-08-03T06:42:44;90254.66;;;28.26;36.79
10366;BME280;5229;41.820;23.490;2022-08-03T06:45:12;90251.06;;;28.36;36.47
10366;BME280;5229;41.820;23.490;2022-08-03T06:47:39;90252.09;;;28.46;36.20
10366;BME280;5229;41.820;23.490;2022-08-03T06:50:07;90251.13;;;28.59;36.46
10366;BME280;5229;41.820;23.490;2022-08-03T06:52:35;90244.78;;;28.73;36.02
10366;BME280;5229;41.820;23.490;2022-08-03T06:55:02;90246.88;;;28.85;35.27
10366;BME280;5229;41.820;23.490;2022-08-03T06:57:29;90247.09;;;28.94;35.25
10366;BME280;5229;41.820;23.490;2022-08-03T06:59:56;90240.44;;;29.05;35.09
10366;BME280;5229;41.820;23.490;2022-08-03T07:02:27;90247.78;;;29.21;35.23
10366;BME280;5229;41.820;23.490;2022-08-03T07:04:55;90248.25;;;29.35;34.01
10366;BME280;5229;41.820;23.490;2022-08-03T07:07:22;90244.56;;;29.49;33.99
10366;BME280;5229;41.820;23.490;2022-08-03T07:09:48;90240.19;;;29.58;33.66
10366;BME280;5229;41.820;23.490;2022-08-03T07:12:15;90243.72;;;29.71;33.21
10366;BME280;5229;41.820;23.490;2022-08-03T07:14:42;90247.97;;;29.88;33.13
10366;BME280;5229;41.820;23.490;2022-08-03T07:17:09;90251.44;;;30.05;32.77
10366;BME280;5229;41.820;23.490;2022-08-03T07:19:37;90245.78;;;30.19;32.92
10366;BME280;5229;41.820;23.490;2022-08-03T07:22:04;90252.00;;;30.32;32.80
10366;BME280;5229;41.820;23.490;2022-08-03T07:24:33;90256.97;;;30.49;32.38
10366;BME280;5229;41.820;23.490;2022-08-03T07:27:00;90253.59;;;30.61;32.36
10366;BME280;5229;41.820;23.490;2022-08-03T07:29:27;90249.84;;;30.75;32.15
10366;BME280;5229;41.820;23.490;2022-08-03T07:31:54;90249.69;;;30.82;31.68
10366;BME280;5229;41.820;23.490;2022-08-03T07:34:21;90248.84;;;30.85;31.72
10366;BME280;5229;41.820;23.490;2022-08-03T07:36:49;90254.78;;;30.93;31.68
10366;BME280;5229;41.820;23.490;2022-08-03T07:39:16;90247.25;;;31.04;31.13
10366;BME280;5229;41.820;23.490;2022-08-03T07:41:42;90249.44;;;31.21;30.92
10366;BME280;5229;41.820;23.490;2022-08-03T07:44:09;90262.00;;;31.40;30.74
10366;BME280;5229;41.820;23.490;2022-08-03T07:46:36;90259.25;;;31.56;31.00
10366;BME280;5229;41.820;23.490;2022-08-03T07:49:03;90250.41;;;31.72;30.92
10366;BME280;5229;41.820;23.490;2022-08-03T07:51:30;90254.63;;;31.85;30.30
10366;BME280;5229;41.820;23.490;2022-08-03T07:53:58;90258.09;;;31.98;29.88
10366;BME280;5229;41.820;23.490;2022-08-03T07:56:25;90251.25;;;32.10;29.72
10366;BME280;5229;41.820;23.490;2022-08-03T07:58:53;90262.53;;;32.30;29.13
10366;BME280;5229;41.820;23.490;2022-08-03T08:01:20;90259.00;;;32.45;29.07
10366;BME280;5229;41.820;23.490;2022-08-03T08:03:48;90260.09;;;32.60;28.50
10366;BME280;5229;41.820;23.490;2022-08-03T08:06:15;90253.63;;;32.70;27.82
10366;BME280;5229;41.820;23.490;2022-08-03T08:08:42;90251.88;;;32.76;28.08
10366;BME280;5229;41.820;23.490;2022-08-03T08:11:10;90262.44;;;32.83;28.07
10366;BME280;5229;41.820;23.490;2022-08-03T08:13:37;90259.44;;;32.94;27.79
10366;BME280;5229;41.820;23.490;2022-08-03T08:16:04;90251.75;;;33.05;27.59
10366;BME280;5229;41.820;23.490;2022-08-03T08:18:31;90256.16;;;33.11;27.22
10366;BME280;5229;41.820;23.490;2022-08-03T08:20:59;90248.19;;;33.21;26.91
10366;BME280;5229;41.820;23.490;2022-08-03T08:23:27;90247.38;;;33.33;26.88
10366;BME280;5229;41.820;23.490;2022-08-03T08:25:54;90243.59;;;33.43;26.58
10366;BME280;5229;41.820;23.490;2022-08-03T08:28:23;90238.47;;;33.57;25.97
10366;BME280;5229;41.820;23.490;2022-08-03T08:30:49;90236.97;;;33.78;26.01
10366;BME280;5229;41.820;23.490;2022-08-03T08:33:16;90232.84;;;34.07;25.52
10366;BME280;5229;41.820;23.490;2022-08-03T08:35:43;90238.34;;;34.34;25.52
10366;BME280;5229;41.820;23.490;2022-08-03T08:38:11;90235.44;;;34.59;25.22
10366;BME280;5229;41.820;23.490;2022-08-03T08:40:37;90239.34;;;34.98;24.36
10366;BME280;5229;41.820;23.490;2022-08-03T08:43:04;90228.31;;;35.50;24.38
10366;BME280;5229;41.820;23.490;2022-08-03T08:45:34;90244.72;;;36.24;22.64
10366;BME280;5229;41.820;23.490;2022-08-03T08:48:02;90241.59;;;36.67;22.97
10366;BME280;5229;41.820;23.490;2022-08-03T08:50:29;90246.69;;;37.77;21.51
10366;BME280;5229;41.820;23.490;2022-08-03T08:53:00;90251.22;;;39.51;19.18
10366;BME280;5229;41.820;23.490;2022-08-03T08:55:28;90251.66;;;41.23;17.76
10366;BME280;5229;41.820;23.490;2022-08-03T08:57:57;90249.47;;;42.77;16.26
10366;BME280;5229;41.820;23.490;2022-08-03T09:00:27;90249.50;;;44.01;15.61
10366;BME280;5229;41.820;23.490;2022-08-03T09:02:56;90248.06;;;45.10;15.58
10366;BME280;5229;41.820;23.490;2022-08-03T09:05:23;90260.19;;;45.74;14.39
10366;BME280;5229;41.820;23.490;2022-08-03T09:07:50;90262.66;;;46.20;13.97
10366;BME280;5229;41.820;23.490;2022-08-03T09:10:17;90262.22;;;46.53;13.88
10366;BME280;5229;41.820;23.490;2022-08-03T09:12:48;90262.88;;;46.96;13.11
10366;BME280;5229;41.820;23.490;2022-08-03T09:15:16;90260.75;;;47.34;12.73
10366;BME280;5229;41.820;23.490;2022-08-03T09:17:44;90264.53;;;47.76;12.59
10366;BME280;5229;41.820;23.490;2022-08-03T09:20:13;90266.22;;;48.05;11.93
10366;BME280;5229;41.820;23.490;2022-08-03T09:22:51;90264.03;;;48.29;11.93
10366;BME280;5229;41.820;23.490;2022-08-03T09:25:21;90264.63;;;48.35;11.62
10366;BME280;5229;41.820;23.490;2022-08-03T09:27:51;90259.44;;;48.06;11.26
10366;BME280;5229;41.820;23.490;2022-08-03T09:30:18;90260.72;;;47.79;11.64
10366;BME280;5229;41.820;23.490;2022-08-03T09:32:45;90262.72;;;48.04;11.01
10366;BME280;5229;41.820;23.490;2022-08-03T09:35:14;90257.94;;;48.44;11.02
10366;BME280;5229;41.820;23.490;2022-08-03T09:37:41;90264.63;;;48.95;11.07
10366;BME280;5229;41.820;23.490;2022-08-03T09:40:08;90263.06;;;49.48;11.29
10366;BME280;5229;41.820;23.490;2022-08-03T09:42:35;90254.25;;;49.70;10.70
10366;BME280;5229;41.820;23.490;2022-08-03T09:45:04;90258.28;;;49.69;10.99
10366;BME280;5229;41.820;23.490;2022-08-03T09:47:32;90254.38;;;49.23;11.09
10366;BME280;5229;41.820;23.490;2022-08-03T09:50:02;90253.25;;;48.85;11.18
10366;BME280;5229;41.820;23.490;2022-08-03T09:52:32;90254.53;;;48.64;11.44
10366;BME280;5229;41.820;23.490;2022-08-03T09:55:00;90249.72;;;47.79;11.71
10366;BME280;5229;41.820;23.490;2022-08-03T09:57:27;90247.81;;;46.84;12.05
10366;BME280;5229;41.820;23.490;2022-08-03T10:00:06;90235.94;;;46.39;12.74
10366;BME280;5229;41.820;23.490;2022-08-03T10:02:36;90239.72;;;45.51;12.85
10366;BME280;5229;41.820;23.490;2022-08-03T10:05:03;90234.59;;;44.42;13.71
10366;BME280;5229;41.820;23.490;2022-08-03T10:07:41;90226.19;;;43.89;14.05
10366;BME280;5229;41.820;23.490;2022-08-03T10:10:08;90228.16;;;44.40;13.91
10366;BME280;5229;41.820;23.490;2022-08-03T10:12:36;90229.16;;;43.80;13.89
10366;BME280;5229;41.820;23.490;2022-08-03T10:15:04;90214.41;;;43.31;14.32
10366;BME280;5229;41.820;23.490;2022-08-03T10:17:31;90209.94;;;43.34;14.13
10366;BME280;5229;41.820;23.490;2022-08-03T10:19:58;90209.50;;;42.69;14.40
10366;BME280;5229;41.820;23.490;2022-08-03T10:22:27;90212.78;;;41.76;15.24
10366;BME280;5229;41.820;23.490;2022-08-03T10:24:59;90204.56;;;41.17;15.55
10366;BME280;5229;41.820;23.490;2022-08-03T10:27:31;90189.94;;;40.73;16.36
10366;BME280;5229;41.820;23.490;2022-08-03T10:30:00;90199.31;;;40.72;16.65
10366;BME280;5229;41.820;23.490;2022-08-03T10:32:30;90203.28;;;40.45;15.97
10366;BME280;5229;41.820;23.490;2022-08-03T10:35:03;90198.16;;;39.76;17.00
10366;BME280;5229;41.820;23.490;2022-08-03T10:37:33;90201.22;;;39.03;17.96
10366;BME280;5229;41.820;23.490;2022-08-03T10:40:06;90191.56;;;38.39;18.22
10366;BME280;5229;41.820;23.490;2022-08-03T10:42:34;90193.63;;;37.85;19.13
10366;BME280;5229;41.820;23.490;2022-08-03T10:45:05;90189.06;;;37.53;19.60
10366;BME280;5229;41.820;23.490;2022-08-03T10:47:34;90186.22;;;37.33;20.00
10366;BME280;5229;41.820;23.490;2022-08-03T10:50:02;90192.75;;;37.03;20.90
10366;BME280;5229;41.820;23.490;2022-08-03T10:52:29;90187.81;;;36.69;20.84
10366;BME280;5229;41.820;23.490;2022-08-03T10:54:56;90190.34;;;36.40;20.73
10366;BME280;5229;41.820;23.490;2022-08-03T10:57:49;90179.94;;;36.06;21.36
10366;BME280;5229;41.820;23.490;2022-08-03T11:00:18;90190.47;;;35.77;21.47
10366;BME280;5229;41.820;23.490;2022-08-03T11:03:06;90186.78;;;35.38;22.30
10366;BME280;5229;41.820;23.490;2022-08-03T11:05:36;90183.63;;;35.04;22.66
10366;BME280;5229;41.820;23.490;2022-08-03T11:08:27;90183.78;;;34.61;22.83
10366;BME280;5229;41.820;23.490;2022-08-03T11:10:57;90175.75;;;34.30;23.19
10366;BME280;5229;41.820;23.490;2022-08-03T11:13:26;90175.66;;;34.03;23.79
10366;BME280;5229;41.820;23.490;2022-08-03T11:15:58;90171.59;;;33.77;24.46
10366;BME280;5229;41.820;23.490;2022-08-03T11:18:26;90174.53;;;33.61;24.48
10366;BME280;5229;41.820;23.490;2022-08-03T11:20:54;90176.97;;;33.47;24.89
10366;BME280;5229;41.820;23.490;2022-08-03T11:23:40;90166.38;;;33.31;24.82
10366;BME280;5229;41.820;23.490;2022-08-03T11:26:11;90164.47;;;33.18;25.00
10366;BME280;5229;41.820;23.490;2022-08-03T11:28:40;90167.75;;;33.13;25.32
10366;BME280;5229;41.820;23.490;2022-08-03T11:31:44;90159.72;;;33.01;24.96
10366;BME280;5229;41.820;23.490;2022-08-03T11:34:15;90158.19;;;33.00;24.78
10366;BME280;5229;41.820;23.490;2022-08-03T11:37:18;90146.47;;;33.06;25.00
10366;BME280;5229;41.820;23.490;2022-08-03T11:39:47;90149.84;;;33.19;25.53
10366;BME280;5229;41.820;23.490;2022-08-03T11:42:41;90148.59;;;33.33;26.19
10366;BME280;5229;41.820;23.490;2022-08-03T11:45:14;90149.19;;;33.50;26.19
10366;BME280;5229;41.820;23.490;2022-08-03T11:47:42;90151.97;;;33.46;26.41
10366;BME280;5229;41.820;23.490;2022-08-03T11:50:09;90149.59;;;33.27;26.18
10366;BME280;5229;41.820;23.490;2022-08-03T11:52:38;90146.09;;;33.17;26.79
10366;BME280;5229;41.820;23.490;2022-08-03T11:55:14;90153.78;;;33.06;26.94
10366;BME280;5229;41.820;23.490;2022-08-03T11:57:42;90152.97;;;32.96;26.92
10366;BME280;5229;41.820;23.490;2022-08-03T12:00:27;90154.94;;;32.83;27.11
10366;BME280;5229;41.820;23.490;2022-08-03T12:03:02;90154.84;;;32.74;26.81
10366;BME280;5229;41.820;23.490;2022-08-03T12:05:38;90159.50;;;32.61;27.29
10366;BME280;5229;41.820;23.490;2022-08-03T12:08:06;90159.81;;;32.51;26.89
10366;BME280;5229;41.820;23.490;2022-08-03T12:10:33;90153.75;;;32.38;27.20
10366;BME280;5229;41.820;23.490;2022-08-03T12:13:02;90156.72;;;32.27;27.25
10366;BME280;5229;41.820;23.490;2022-08-03T12:15:33;90152.09;;;32.28;27.85
10366;BME280;5229;41.820;23.490;2022-08-03T12:18:01;90159.66;;;32.33;27.92
10366;BME280;5229;41.820;23.490;2022-08-03T12:20:31;90157.28;;;32.35;27.79
10366;BME280;5229;41.820;23.490;2022-08-03T12:23:02;90153.41;;;32.36;27.85
10366;BME280;5229;41.820;23.490;2022-08-03T12:25:30;90164.91;;;32.36;28.00
10366;BME280;5229;41.820;23.490;2022-08-03T12:28:07;90159.66;;;32.33;28.03
10366;BME280;5229;41.820;23.490;2022-08-03T12:30:36;90165.97;;;32.26;28.06
10366;BME280;5229;41.820;23.490;2022-08-03T12:33:17;90162.97;;;32.12;28.05
10366;BME280;5229;41.820;23.490;2022-08-03T12:35:46;90162.88;;;32.03;28.07
10366;BME280;5229;41.820;23.490;2022-08-03T12:38:18;90171.22;;;31.92;27.51
10366;BME280;5229;41.820;23.490;2022-08-03T12:40:57;90165.84;;;31.80;27.38
10366;BME280;5229;41.820;23.490;2022-08-03T12:43:25;90172.16;;;31.73;27.44
10366;BME280;5229;41.820;23.490;2022-08-03T12:46:06;90167.75;;;31.54;27.41
10366;BME280;5229;41.820;23.490;2022-08-03T12:48:33;90173.50;;;31.40;27.56
10366;BME280;5229;41.820;23.490;2022-08-03T12:51:07;90171.72;;;31.21;27.49
10366;BME280;5229;41.820;23.490;2022-08-03T12:53:34;90181.00;;;31.04;27.36
10366;BME280;5229;41.820;23.490;2022-08-03T12:56:01;90170.31;;;30.88;27.44
10366;BME280;5229;41.820;23.490;2022-08-03T12:58:29;90171.09;;;30.73;27.46
10366;BME280;5229;41.820;23.490;2022-08-03T13:00:59;90171.41;;;30.58;27.94
10366;BME280;5229;41.820;23.490;2022-08-03T13:03:26;90170.19;;;30.47;28.25
10366;BME280;5229;41.820;23.490;2022-08-03T13:05:53;90173.44;;;30.38;28.21
10366;BME280;5229;41.820;23.490;2022-08-03T13:08:23;90175.22;;;30.29;27.86
10366;BME280;5229;41.820;23.490;2022-08-03T13:10:50;90173.53;;;30.19;28.25